sensor_id;sensor_type;location;lat;lon;timestamp;pressure;altitude;pressure_sealevel;temperature;humidity
52469;BME280;38381;53.688;10.776;2023-04-08T00:01:24;102057.00;;;5.29;92.55
52469;BME280;38381;53.688;10.776;2023-04-08T00:06:25;102055.69;;;5.37;93.03
52469;BME280;38381;53.688;10.776;2023-04-08T00:11:26;102043.59;;;5.36;92.79
52469;BME280;38381;53.688;10.776;2023-04-08T00:16:26;102051.19;;;5.33;93.53
52469;BME280;38381;53.688;10.776;2023-04-08T00:21:27;102051.56;;;5.23;94.04
52469;BME280;38381;53.688;10.776;2023-04-08T00:26:27;102056.84;;;5.26;93.55
52469;BME280;38381;53.688;10.776;2023-04-08T00:31:28;102068.81;;;5.26;93.59
52469;BME280;38381;53.688;10.776;2023-04-08T00:36:28;102063.81;;;5.29;93.22
52469;BME280;38381;53.688;10.776;2023-04-08T00:41:28;102059.31;;;5.24;93.74
52469;BME280;38381;53.688;10.776;2023-04-08T00:46:35;102058.25;;;5.37;93.09
52469;BME280;38381;53.688;10.776;2023-04-08T00:51:35;102055.22;;;5.28;93.26
52469;BME280;38381;53.688;10.776;2023-04-08T00:56:36;102059.63;;;5.31;93.56
52469;BME280;38381;53.688;10.776;2023-04-08T01:06:50;102047.38;;;5.25;92.48
52469;BME280;38381;53.688;10.776;2023-04-08T01:11:57;102046.63;;;5.28;93.23
52469;BME280;38381;53.688;10.776;2023-04-08T01:17:01;102052.94;;;5.34;92.59
52469;BME280;38381;53.688;10.776;2023-04-08T01:27:37;102044.13;;;5.29;93.15
52469;BME280;38381;53.688;10.776;2023-04-08T01:32:39;102041.88;;;5.35;92.33
52469;BME280;38381;53.688;10.776;2023-04-08T01:37:42;102048.38;;;5.29;92.36
52469;BME280;38381;53.688;10.776;2023-04-08T01:42:43;102045.97;;;5.32;92.29
52469;BME280;38381;53.688;10.776;2023-04-08T01:47:45;102036.69;;;5.17;93.10
52469;BME280;38381;53.688;10.776;2023-04-08T01:52:48;102039.69;;;5.27;93.31
52469;BME280;38381;53.688;10.776;2023-04-08T01:57:51;102055.22;;;5.28;92.83
52469;BME280;38381;53.688;10.776;2023-04-08T02:02:52;102043.84;;;5.23;94.02
52469;BME280;38381;53.688;10.776;2023-04-08T02:07:53;102041.09;;;5.20;93.46
52469;BME280;38381;53.688;10.776;2023-04-08T02:12:54;102051.91;;;5.13;94.46
52469;BME280;38381;53.688;10.776;2023-04-08T02:17:59;102053.97;;;5.20;94.21
52469;BME280;38381;53.688;10.776;2023-04-08T02:23:07;102053.97;;;5.20;93.24
52469;BME280;38381;53.688;10.776;2023-04-08T02:28:09;102061.03;;;5.24;93.76
52469;BME280;38381;53.688;10.776;2023-04-08T02:33:11;102056.09;;;5.11;94.21
52469;BME280;38381;53.688;10.776;2023-04-08T02:38:13;102054.31;;;5.10;93.65
52469;BME280;38381;53.688;10.776;2023-04-08T02:43:14;102055.13;;;5.09;94.49
52469;BME280;38381;53.688;10.776;2023-04-08T02:48:15;102059.72;;;4.98;94.96
52469;BME280;38381;53.688;10.776;2023-04-08T02:53:16;102069.44;;;5.03;95.34
52469;BME280;38381;53.688;10.776;2023-04-08T02:58:16;102067.03;;;5.07;94.71
52469;BME280;38381;53.688;10.776;2023-04-08T03:03:17;102067.16;;;5.10;94.04
52469;BME280;38381;53.688;10.776;2023-04-08T03:08:17;102061.38;;;5.14;94.45
52469;BME280;38381;53.688;10.776;2023-04-08T03:13:18;102069.16;;;5.15;94.30
52469;BME280;38381;53.688;10.776;2023-04-08T03:18:18;102071.22;;;5.04;93.59
52469;BME280;38381;53.688;10.776;2023-04-08T03:23:18;102075.72;;;5.09;94.03
52469;BME280;38381;53.688;10.776;2023-04-08T03:28:19;102081.19;;;4.98;93.99
52469;BME280;38381;53.688;10.776;2023-04-08T03:33:19;102080.47;;;5.01;93.30
52469;BME280;38381;53.688;10.776;2023-04-08T03:38:20;102082.59;;;5.10;93.04
52469;BME280;38381;53.688;10.776;2023-04-08T03:43:20;102083.25;;;5.06;93.03
52469;BME280;38381;53.688;10.776;2023-04-08T03:48:21;102083.25;;;5.06;93.21
52469;BME280;38381;53.688;10.776;2023-04-08T03:53:22;102085.03;;;5.07;92.87
52469;BME280;38381;53.688;10.776;2023-04-08T03:58:22;102091.16;;;4.92;93.61
52469;BME280;38381;53.688;10.776;2023-04-08T04:03:22;102104.03;;;4.92;93.58
52469;BME280;38381;53.688;10.776;2023-04-08T04:08:24;102101.75;;;4.98;93.12
52469;BME280;38381;53.688;10.776;2023-04-08T04:13:24;102114.03;;;5.04;92.68
52469;BME280;38381;53.688;10.776;2023-04-08T04:18:24;102108.81;;;5.02;93.07
52469;BME280;38381;53.688;10.776;2023-04-08T04:23:25;102111.72;;;4.92;93.72
52469;BME280;38381;53.688;10.776;2023-04-08T04:28:25;102126.88;;;5.04;93.60
52469;BME280;38381;53.688;10.776;2023-04-08T04:33:26;102127.13;;;5.09;92.53
52469;BME280;38381;53.688;10.776;2023-04-08T04:38:26;102132.34;;;5.10;94.27
52469;BME280;38381;53.688;10.776;2023-04-08T04:43:27;102137.97;;;5.03;93.81
52469;BME280;38381;53.688;10.776;2023-04-08T04:48:27;102137.59;;;4.95;94.80
52469;BME280;38381;53.688;10.776;2023-04-08T04:53:28;102145.84;;;4.90;94.82
52469;BME280;38381;53.688;10.776;2023-04-08T04:58:29;102143.91;;;5.02;94.24
52469;BME280;38381;53.688;10.776;2023-04-08T05:03:30;102144.97;;;4.89;95.06
52469;BME280;38381;53.688;10.776;2023-04-08T05:08:30;102149.72;;;4.81;94.85
52469;BME280;38381;53.688;10.776;2023-04-08T05:13:31;102163.47;;;4.82;95.16
52469;BME280;38381;53.688;10.776;2023-04-08T05:18:31;102162.00;;;4.87;94.66
52469;BME280;38381;53.688;10.776;2023-04-08T05:23:33;102168.28;;;4.92;95.15
52469;BME280;38381;53.688;10.776;2023-04-08T05:28:34;102165.94;;;4.97;94.58
52469;BME280;38381;53.688;10.776;2023-04-08T05:33:35;102167.66;;;4.96;94.54
52469;BME280;38381;53.688;10.776;2023-04-08T05:38:35;102175.50;;;4.99;94.53
52469;BME280;38381;53.688;10.776;2023-04-08T05:43:36;102176.00;;;4.92;95.47
52469;BME280;38381;53.688;10.776;2023-04-08T05:48:36;102181.69;;;4.87;95.40
52469;BME280;38381;53.688;10.776;2023-04-08T05:53:37;102183.72;;;4.92;95.45
52469;BME280;38381;53.688;10.776;2023-04-08T05:58:37;102181.94;;;4.91;95.56
52469;BME280;38381;53.688;10.776;2023-04-08T06:03:38;102188.13;;;4.95;95.44
52469;BME280;38381;53.688;10.776;2023-04-08T06:08:38;102192.44;;;4.96;95.54
52469;BME280;38381;53.688;10.776;2023-04-08T06:13:39;102192.94;;;5.05;94.93
52469;BME280;38381;53.688;10.776;2023-04-08T06:18:39;102211.69;;;5.02;95.34
52469;BME280;38381;53.688;10.776;2023-04-08T06:23:40;102203.38;;;5.08;94.76
52469;BME280;38381;53.688;10.776;2023-04-08T06:28:40;102213.28;;;5.00;94.89
52469;BME280;38381;53.688;10.776;2023-04-08T06:33:40;102218.88;;;4.93;96.05
52469;BME280;38381;53.688;10.776;2023-04-08T06:38:41;102223.56;;;5.00;95.56
52469;BME280;38381;53.688;10.776;2023-04-08T06:43:41;102221.97;;;5.02;94.95
52469;BME280;38381;53.688;10.776;2023-04-08T06:48:42;102232.88;;;4.98;95.67
52469;BME280;38381;53.688;10.776;2023-04-08T06:53:42;102230.22;;;4.97;96.03
52469;BME280;38381;53.688;10.776;2023-04-08T06:58:42;102233.03;;;5.01;96.06
52469;BME280;38381;53.688;10.776;2023-04-08T07:03:43;102236.34;;;4.99;96.21
52469;BME280;38381;53.688;10.776;2023-04-08T07:08:43;102245.22;;;4.89;96.66
52469;BME280;38381;53.688;10.776;2023-04-08T07:13:43;102247.56;;;5.01;96.30
52469;BME280;38381;53.688;10.776;2023-04-08T07:18:44;102251.56;;;4.96;96.63
52469;BME280;38381;53.688;10.776;2023-04-08T07:23:45;102262.78;;;4.96;96.39
52469;BME280;38381;53.688;10.776;2023-04-08T07:28:46;102262.19;;;5.02;95.62
52469;BME280;38381;53.688;10.776;2023-04-08T07:33:46;102265.50;;;4.99;95.90
52469;BME280;38381;53.688;10.776;2023-04-08T07:38:46;102268.06;;;4.99;96.24
52469;BME280;38381;53.688;10.776;2023-04-08T07:43:47;102271.78;;;5.04;95.52
52469;BME280;38381;53.688;10.776;2023-04-08T07:48:47;102274.34;;;5.04;96.09
52469;BME280;38381;53.688;10.776;2023-04-08T07:53:48;102277.88;;;5.07;96.53
52469;BME280;38381;53.688;10.776;2023-04-08T07:58:48;102282.63;;;5.15;95.84
52469;BME280;38381;53.688;10.776;2023-04-08T08:03:50;102284.88;;;5.26;95.89
52469;BME280;38381;53.688;10.776;2023-04-08T08:08:51;102280.94;;;5.16;95.84
52469;BME280;38381;53.688;10.776;2023-04-08T08:13:51;102280.38;;;5.21;96.21
52469;BME280;38381;53.688;10.776;2023-04-08T08:18:52;102287.03;;;5.18;96.45
52469;BME280;38381;53.688;10.776;2023-04-08T08:23:52;102293.00;;;5.17;96.83
52469;BME280;38381;53.688;10.776;2023-04-08T08:28:54;102290.81;;;5.24;96.44
52469;BME280;38381;53.688;10.776;2023-04-08T08:33:54;102293.06;;;5.35;95.92
52469;BME280;38381;53.688;10.776;2023-04-08T08:38:55;102300.88;;;5.36;95.31
52469;BME280;38381;53.688;10.776;2023-04-08T08:43:56;102314.56;;;5.35;95.69
52469;BME280;38381;53.688;10.776;2023-04-08T08:48:56;102323.06;;;5.34;95.29
52469;BME280;38381;53.688;10.776;2023-04-08T08:54:01;102318.41;;;5.43;95.39
52469;BME280;38381;53.688;10.776;2023-04-08T08:59:01;102333.22;;;5.48;95.07
52469;BME280;38381;53.688;10.776;2023-04-08T09:09:09;102334.97;;;5.49;95.10
52469;BME280;38381;53.688;10.776;2023-04-08T09:14:17;102334.50;;;5.56;95.38
52469;BME280;38381;53.688;10.776;2023-04-08T09:19:18;102339.63;;;5.56;95.42
52469;BME280;38381;53.688;10.776;2023-04-08T09:24:29;102346.72;;;5.60;95.31
52469;BME280;38381;53.688;10.776;2023-04-08T09:29:30;102352.66;;;5.59;95.10
52469;BME280;38381;53.688;10.776;2023-04-08T09:34:30;102348.47;;;5.61;95.21
52469;BME280;38381;53.688;10.776;2023-04-08T09:39:33;102348.97;;;5.70;95.22
52469;BME280;38381;53.688;10.776;2023-04-08T09:44:34;102356.75;;;5.72;94.70
52469;BME280;38381;53.688;10.776;2023-04-08T09:55:02;102352.97;;;5.81;94.17
52469;BME280;38381;53.688;10.776;2023-04-08T10:00:10;102359.94;;;5.84;94.34
52469;BME280;38381;53.688;10.776;2023-04-08T10:05:12;102360.91;;;5.86;94.16
52469;BME280;38381;53.688;10.776;2023-04-08T10:10:14;102362.69;;;5.87;94.01
52469;BME280;38381;53.688;10.776;2023-04-08T10:20:44;102356.81;;;5.90;94.25
52469;BME280;38381;53.688;10.776;2023-04-08T10:25:46;102364.88;;;5.96;94.51
52469;BME280;38381;53.688;10.776;2023-04-08T10:30:48;102368.59;;;6.01;93.34
52469;BME280;38381;53.688;10.776;2023-04-08T10:35:53;102364.72;;;6.09;93.37
52469;BME280;38381;53.688;10.776;2023-04-08T10:40:54;102360.88;;;6.19;93.24
52469;BME280;38381;53.688;10.776;2023-04-08T10:45:55;102364.06;;;6.13;93.46
52469;BME280;38381;53.688;10.776;2023-04-08T10:51:03;102364.72;;;6.09;93.71
52469;BME280;38381;53.688;10.776;2023-04-08T10:56:07;102362.44;;;6.15;92.98
52469;BME280;38381;53.688;10.776;2023-04-08T11:01:08;102372.28;;;6.06;93.55
52469;BME280;38381;53.688;10.776;2023-04-08T11:06:08;102364.41;;;6.21;93.48
52469;BME280;38381;53.688;10.776;2023-04-08T11:11:09;102363.41;;;6.35;92.87
52469;BME280;38381;53.688;10.776;2023-04-08T11:16:11;102357.91;;;6.45;93.08
52469;BME280;38381;53.688;10.776;2023-04-08T11:21:11;102361.22;;;6.43;92.73
52469;BME280;38381;53.688;10.776;2023-04-08T11:26:12;102366.03;;;6.53;92.30
52469;BME280;38381;53.688;10.776;2023-04-08T11:31:13;102371.69;;;6.46;92.13
52469;BME280;38381;53.688;10.776;2023-04-08T11:36:15;102360.13;;;6.38;91.76
52469;BME280;38381;53.688;10.776;2023-04-08T11:41:17;102368.81;;;6.40;91.91
52469;BME280;38381;53.688;10.776;2023-04-08T11:46:17;102363.06;;;6.45;91.20
52469;BME280;38381;53.688;10.776;2023-04-08T11:51:19;102358.72;;;6.44;91.74
52469;BME280;38381;53.688;10.776;2023-04-08T11:56:21;102358.16;;;6.50;91.40
52469;BME280;38381;53.688;10.776;2023-04-08T12:01:22;102360.06;;;6.54;91.60
52469;BME280;38381;53.688;10.776;2023-04-08T12:06:23;102362.69;;;6.56;91.20
52469;BME280;38381;53.688;10.776;2023-04-08T12:11:24;102368.91;;;6.59;91.33
52469;BME280;38381;53.688;10.776;2023-04-08T12:16:24;102370.69;;;6.60;91.07
52469;BME280;38381;53.688;10.776;2023-04-08T12:21:25;102372.16;;;6.73;90.48
52469;BME280;38381;53.688;10.776;2023-04-08T12:26:26;102380.09;;;6.78;90.07
52469;BME280;38381;53.688;10.776;2023-04-08T12:31:27;102381.50;;;6.71;90.09
52469;BME280;38381;53.688;10.776;2023-04-08T12:36:27;102382.97;;;6.66;90.42
52469;BME280;38381;53.688;10.776;2023-04-08T12:41:28;102376.44;;;6.73;89.94
52469;BME280;38381;53.688;10.776;2023-04-08T12:46:28;102385.78;;;6.71;90.08
52469;BME280;38381;53.688;10.776;2023-04-08T12:51:29;102385.13;;;6.75;90.08
52469;BME280;38381;53.688;10.776;2023-04-08T12:56:30;102377.13;;;6.70;90.32
52469;BME280;38381;53.688;10.776;2023-04-08T13:01:31;102391.59;;;6.67;90.55
52469;BME280;38381;53.688;10.776;2023-04-08T13:06:32;102390.03;;;6.70;90.48
52469;BME280;38381;53.688;10.776;2023-04-08T13:11:32;102390.69;;;6.66;90.53
52469;BME280;38381;53.688;10.776;2023-04-08T13:16:33;102398.38;;;6.64;90.41
52469;BME280;38381;53.688;10.776;2023-04-08T13:21:34;102374.34;;;6.65;90.92
52469;BME280;38381;53.688;10.776;2023-04-08T13:26:35;102386.44;;;6.67;91.06
52469;BME280;38381;53.688;10.776;2023-04-08T13:31:35;102385.25;;;6.78;90.32
52469;BME280;38381;53.688;10.776;2023-04-08T13:36:36;102383.78;;;6.65;90.36
52469;BME280;38381;53.688;10.776;2023-04-08T13:41:36;102378.75;;;6.68;90.16
52469;BME280;38381;53.688;10.776;2023-04-08T13:46:36;102385.16;;;6.76;90.35
52469;BME280;38381;53.688;10.776;2023-04-08T13:51:37;102383.03;;;6.68;90.74
52469;BME280;38381;53.688;10.776;2023-04-08T13:56:37;102378.09;;;6.72;90.41
52469;BME280;38381;53.688;10.776;2023-04-08T14:01:38;102374.81;;;6.75;89.81
52469;BME280;38381;53.688;10.776;2023-04-08T14:06:39;102373.31;;;6.80;90.21
52469;BME280;38381;53.688;10.776;2023-04-08T14:11:40;102378.84;;;6.70;90.30
52469;BME280;38381;53.688;10.776;2023-04-08T14:16:41;102373.03;;;6.74;89.90
52469;BME280;38381;53.688;10.776;2023-04-08T14:21:41;102376.25;;;6.70;90.50
52469;BME280;38381;53.688;10.776;2023-04-08T14:26:42;102379.66;;;6.69;90.83
52469;BME280;38381;53.688;10.776;2023-04-08T14:31:42;102376.34;;;6.71;91.27
52469;BME280;38381;53.688;10.776;2023-04-08T14:36:42;102380.09;;;6.78;90.27
52469;BME280;38381;53.688;10.776;2023-04-08T14:41:44;102382.19;;;6.85;90.46
52469;BME280;38381;53.688;10.776;2023-04-08T14:46:46;102381.50;;;6.89;90.81
52469;BME280;38381;53.688;10.776;2023-04-08T14:51:47;102378.41;;;6.96;90.73
52469;BME280;38381;53.688;10.776;2023-04-08T14:56:47;102378.88;;;7.07;90.39
52469;BME280;38381;53.688;10.776;2023-04-08T15:01:47;102382.13;;;7.21;89.17
52469;BME280;38381;53.688;10.776;2023-04-08T15:06:48;102385.25;;;7.33;88.67
52469;BME280;38381;53.688;10.776;2023-04-08T15:11:48;102373.59;;;7.22;88.91
52469;BME280;38381;53.688;10.776;2023-04-08T15:16:49;102373.91;;;7.30;89.48
52469;BME280;38381;53.688;10.776;2023-04-08T15:21:50;102377.44;;;7.32;89.02
52469;BME280;38381;53.688;10.776;2023-04-08T15:26:50;102375.34;;;7.23;89.51
52469;BME280;38381;53.688;10.776;2023-04-08T15:31:51;102377.78;;;7.20;89.37
52469;BME280;38381;53.688;10.776;2023-04-08T15:36:51;102386.13;;;7.14;89.78
52469;BME280;38381;53.688;10.776;2023-04-08T15:41:52;102384.34;;;7.13;89.46
52469;BME280;38381;53.688;10.776;2023-04-08T15:46:52;102386.41;;;7.20;89.41
52469;BME280;38381;53.688;10.776;2023-04-08T15:51:53;102385.44;;;7.18;89.40
52469;BME280;38381;53.688;10.776;2023-04-08T15:56:53;102392.31;;;7.18;89.28
52469;BME280;38381;53.688;10.776;2023-04-08T16:01:54;102392.16;;;7.15;89.36
52469;BME280;38381;53.688;10.776;2023-04-08T16:06:54;102394.06;;;7.19;89.51
52469;BME280;38381;53.688;10.776;2023-04-08T16:11:55;102394.72;;;7.15;89.49
52469;BME280;38381;53.688;10.776;2023-04-08T16:16:55;102397.41;;;7.16;89.15
52469;BME280;38381;53.688;10.776;2023-04-08T16:21:57;102395.56;;;7.14;89.28
52469;BME280;38381;53.688;10.776;2023-04-08T16:26:57;102397.19;;;7.12;88.77
52469;BME280;38381;53.688;10.776;2023-04-08T16:31:58;102399.69;;;7.10;89.06
52469;BME280;38381;53.688;10.776;2023-04-08T16:36:58;102397.13;;;6.92;89.67
52469;BME280;38381;53.688;10.776;2023-04-08T16:41:58;102406.94;;;6.99;89.49
52469;BME280;38381;53.688;10.776;2023-04-08T16:46:59;102402.47;;;6.97;89.73
52469;BME280;38381;53.688;10.776;2023-04-08T16:52:00;102406.31;;;7.05;89.40
52469;BME280;38381;53.688;10.776;2023-04-08T16:57:00;102407.81;;;7.00;89.54
52469;BME280;38381;53.688;10.776;2023-04-08T17:02:00;102406.03;;;6.99;90.01
52469;BME280;38381;53.688;10.776;2023-04-08T17:07:01;102413.41;;;6.91;89.48
52469;BME280;38381;53.688;10.776;2023-04-08T17:12:02;102415.84;;;6.88;89.68
52469;BME280;38381;53.688;10.776;2023-04-08T17:17:03;102424.44;;;6.89;90.13
52469;BME280;38381;53.688;10.776;2023-04-08T17:22:03;102430.25;;;6.84;90.33
52469;BME280;38381;53.688;10.776;2023-04-08T17:27:04;102421.53;;;6.81;90.58
52469;BME280;38381;53.688;10.776;2023-04-08T17:32:04;102423.13;;;6.79;90.37
52469;BME280;38381;53.688;10.776;2023-04-08T17:37:05;102425.72;;;6.79;90.60
52469;BME280;38381;53.688;10.776;2023-04-08T17:42:06;102430.94;;;6.62;91.24
52469;BME280;38381;53.688;10.776;2023-04-08T17:47:07;102432.84;;;6.67;91.40
52469;BME280;38381;53.688;10.776;2023-04-08T17:52:08;102433.25;;;6.58;91.44
52469;BME280;38381;53.688;10.776;2023-04-08T17:57:08;102437.09;;;6.48;92.18
52469;BME280;38381;53.688;10.776;2023-04-08T18:02:08;102437.97;;;6.49;92.33
52469;BME280;38381;53.688;10.776;2023-04-08T18:07:09;102444.66;;;6.45;91.59
52469;BME280;38381;53.688;10.776;2023-04-08T18:12:09;102450.84;;;6.49;91.63
52469;BME280;38381;53.688;10.776;2023-04-08T18:17:10;102447.31;;;6.47;91.46
52469;BME280;38381;53.688;10.776;2023-04-08T18:22:10;102454.00;;;6.43;92.06
52469;BME280;38381;53.688;10.776;2023-04-08T18:27:11;102450.31;;;6.38;92.16
52469;BME280;38381;53.688;10.776;2023-04-08T18:32:11;102461.03;;;6.29;92.72
52469;BME280;38381;53.688;10.776;2023-04-08T18:37:12;102459.19;;;6.27;93.30
52469;BME280;38381;53.688;10.776;2023-04-08T18:42:12;102468.94;;;6.32;92.38
52469;BME280;38381;53.688;10.776;2023-04-08T18:47:13;102471.66;;;6.35;92.38
52469;BME280;38381;53.688;10.776;2023-04-08T18:52:13;102483.66;;;6.35;91.98
52469;BME280;38381;53.688;10.776;2023-04-08T18:57:13;102478.03;;;6.26;92.57
52469;BME280;38381;53.688;10.776;2023-04-08T19:02:14;102472.41;;;6.16;92.82
52469;BME280;38381;53.688;10.776;2023-04-08T19:07:15;102473.78;;;6.10;93.56
52469;BME280;38381;53.688;10.776;2023-04-08T19:12:16;102477.63;;;6.18;92.89
52469;BME280;38381;53.688;10.776;2023-04-08T19:17:16;102480.78;;;6.12;93.13
52469;BME280;38381;53.688;10.776;2023-04-08T19:22:17;102477.47;;;6.15;93.02
52469;BME280;38381;53.688;10.776;2023-04-08T19:27:17;102485.38;;;6.18;93.06
52469;BME280;38381;53.688;10.776;2023-04-08T19:32:18;102478.38;;;6.15;92.78
52469;BME280;38381;53.688;10.776;2023-04-08T19:37:18;102479.06;;;6.13;92.77
52469;BME280;38381;53.688;10.776;2023-04-08T19:42:19;102468.84;;;6.14;92.66
52469;BME280;38381;53.688;10.776;2023-04-08T19:47:19;102474.81;;;6.13;92.96
52469;BME280;38381;53.688;10.776;2023-04-08T19:52:20;102479.00;;;6.11;92.24
52469;BME280;38381;53.688;10.776;2023-04-08T19:57:20;102473.88;;;6.11;93.07
52469;BME280;38381;53.688;10.776;2023-04-08T20:02:21;102472.00;;;6.09;92.69
52469;BME280;38381;53.688;10.776;2023-04-08T20:07:23;102475.72;;;6.14;92.90
52469;BME280;38381;53.688;10.776;2023-04-08T20:12:24;102480.94;;;6.15;92.41
52469;BME280;38381;53.688;10.776;2023-04-08T20:17:24;102486.16;;;6.17;92.23
52469;BME280;38381;53.688;10.776;2023-04-08T20:22:25;102482.06;;;6.20;92.39
52469;BME280;38381;53.688;10.776;2023-04-08T20:27:26;102482.78;;;6.18;92.62
52469;BME280;38381;53.688;10.776;2023-04-08T20:32:26;102484.22;;;6.13;92.52
52469;BME280;38381;53.688;10.776;2023-04-08T20:37:28;102493.81;;;6.15;92.23
52469;BME280;38381;53.688;10.776;2023-04-08T20:42:28;102492.13;;;6.16;92.40
52469;BME280;38381;53.688;10.776;2023-04-08T20:47:28;102490.34;;;6.15;92.12
52469;BME280;38381;53.688;10.776;2023-04-08T20:52:29;102488.69;;;6.15;91.90
52469;BME280;38381;53.688;10.776;2023-04-08T20:57:29;102494.94;;;6.20;91.90
52469;BME280;38381;53.688;10.776;2023-04-08T21:02:30;102496.78;;;6.23;91.85
52469;BME280;38381;53.688;10.776;2023-04-08T21:07:31;102494.16;;;6.21;91.92
52469;BME280;38381;53.688;10.776;2023-04-08T21:12:31;102490.59;;;6.19;92.17
52469;BME280;38381;53.688;10.776;2023-04-08T21:17:31;102494.84;;;6.19;92.40
52469;BME280;38381;53.688;10.776;2023-04-08T21:22:32;102493.97;;;6.18;91.90
52469;BME280;38381;53.688;10.776;2023-04-08T21:27:32;102491.31;;;6.17;92.25
52469;BME280;38381;53.688;10.776;2023-04-08T21:32:33;102488.91;;;6.20;92.09
52469;BME280;38381;53.688;10.776;2023-04-08T21:37:33;102496.47;;;6.17;92.70
52469;BME280;38381;53.688;10.776;2023-04-08T21:42:34;102500.91;;;6.19;92.45
52469;BME280;38381;53.688;10.776;2023-04-08T21:47:34;102496.53;;;6.18;92.20
52469;BME280;38381;53.688;10.776;2023-04-08T21:52:35;102502.66;;;6.20;92.03
52469;BME280;38381;53.688;10.776;2023-04-08T21:57:36;102502.66;;;6.20;91.61
52469;BME280;38381;53.688;10.776;2023-04-08T22:02:37;102495.75;;;6.19;92.60
52469;BME280;38381;53.688;10.776;2023-04-08T22:07:39;102507.81;;;6.20;92.15
52469;BME280;38381;53.688;10.776;2023-04-08T22:12:40;102496.63;;;6.20;92.45
52469;BME280;38381;53.688;10.776;2023-04-08T22:17:40;102504.19;;;6.17;92.87
52469;BME280;38381;53.688;10.776;2023-04-08T22:22:41;102498.97;;;6.15;93.11
52469;BME280;38381;53.688;10.776;2023-04-08T22:27:41;102497.28;;;6.16;92.91
52469;BME280;38381;53.688;10.776;2023-04-08T22:32:41;102498.06;;;6.15;93.03
52469;BME280;38381;53.688;10.776;2023-04-08T22:37:42;102496.41;;;6.15;93.03
52469;BME280;38381;53.688;10.776;2023-04-08T22:42:42;102497.19;;;6.14;93.21
52469;BME280;38381;53.688;10.776;2023-04-08T22:47:43;102490.53;;;6.18;93.56
52469;BME280;38381;53.688;10.776;2023-04-08T22:52:43;102504.13;;;6.15;92.98
52469;BME280;38381;53.688;10.776;2023-04-08T22:57:44;102489.63;;;6.17;93.16
52469;BME280;38381;53.688;10.776;2023-04-08T23:02:44;102492.59;;;6.09;93.83
52469;BME280;38381;53.688;10.776;2023-04-08T23:07:45;102492.13;;;6.16;93.97
52469;BME280;38381;53.688;10.776;2023-04-08T23:12:45;102485.38;;;6.18;93.56
52469;BME280;38381;53.688;10.776;2023-04-08T23:17:45;102489.56;;;6.16;94.38
52469;BME280;38381;53.688;10.776;2023-04-08T23:22:46;102495.25;;;6.10;94.93
52469;BME280;38381;53.688;10.776;2023-04-08T23:27:46;102496.72;;;6.05;95.34
52469;BME280;38381;53.688;10.776;2023-04-08T23:32:46;102488.34;;;6.09;94.71
52469;BME280;38381;53.688;10.776;2023-04-08T23:37:47;102494.28;;;6.08;93.90
52469;BME280;38381;53.688;10.776;2023-04-08T23:42:47;102484.72;;;6.06;94.86
52469;BME280;38381;53.688;10.776;2023-04-08T23:47:48;102483.75;;;6.03;95.39
52469;BME280;38381;53.688;10.776;2023-04-08T23:52:48;102490.88;;;5.93;95.77
52469;BME280;38381;53.688;10.776;2023-04-08T23:57:49;102492.84;;;5.97;95.83
